sensor_id;sensor_type;location;lat;lon;timestamp;pressure;altitude;pressure_sealevel;temperature;humidity
14800;BME280;7491;57.750;11.970;2023-03-25T00:00:01;74694.22;;;-142.11;100.00
14800;BME280;7491;57.750;11.970;2023-03-25T00:02:34;74702.38;;;-142.11;100.00
14800;BME280;7491;57.750;11.970;2023-03-25T00:05:04;74688.09;;;-142.11;100.00
14800;BME280;7491;57.750;11.970;2023-03-25T00:07:31;74702.38;;;-142.11;100.00
14800;BME280;7491;57.750;11.970;2023-03-25T00:09:58;74708.47;;;-142.11;100.00
14800;BME280;7491;57.750;11.970;2023-03-25T00:12:25;74696.25;;;-142.11;100.00
14800;BME280;7491;57.750;11.970;2023-03-25T00:14:52;74682.00;;;-142.11;100.00
14800;BME280;7491;57.750;11.970;2023-03-25T00:17:20;74679.97;;;-142.11;100.00
14800;BME280;7491;57.750;11.970;2023-03-25T00:19:47;74686.06;;;-142.11;100.00
14800;BME280;7491;57.750;11.970;2023-03-25T00:22:17;74682.00;;;-142.11;100.00
14800;BME280;7491;57.750;11.970;2023-03-25T00:24:45;74686.06;;;-142.11;100.00
14800;BME280;7491;57.750;11.970;2023-03-25T00:27:12;74686.06;;;-142.11;100.00
14800;BME280;7491;57.750;11.970;2023-03-25T00:29:42;74675.88;;;-142.11;100.00
14800;BME280;7491;57.750;11.970;2023-03-25T00:32:09;74684.03;;;-142.11;100.00
14800;BME280;7491;57.750;11.970;2023-03-25T00:34:35;74686.06;;;-142.11;100.00
14800;BME280;7491;57.750;11.970;2023-03-25T00:37:06;74675.88;;;-142.11;100.00
14800;BME280;7491;57.750;11.970;2023-03-25T00:39:34;74692.19;;;-142.11;100.00
14800;BME280;7491;57.750;11.970;2023-03-25T00:42:01;74682.00;;;-142.11;100.00
14800;BME280;7491;57.750;11.970;2023-03-25T00:44:28;74667.72;;;-142.11;100.00
14800;BME280;7491;57.750;11.970;2023-03-25T00:46:55;74673.84;;;-142.11;100.00
14800;BME280;7491;57.750;11.970;2023-03-25T00:49:22;74663.66;;;-142.11;100.00
14800;BME280;7491;57.750;11.970;2023-03-25T00:51:49;74659.59;;;-142.11;100.00
14800;BME280;7491;57.750;11.970;2023-03-25T00:54:17;74661.63;;;-142.11;100.00
14800;BME280;7491;57.750;11.970;2023-03-25T00:56:48;74675.88;;;-142.11;100.00
14800;BME280;7491;57.750;11.970;2023-03-25T00:59:15;74667.72;;;-142.11;100.00
14800;BME280;7491;57.750;11.970;2023-03-25T01:01:41;74677.91;;;-142.11;100.00
14800;BME280;7491;57.750;11.970;2023-03-25T01:04:10;74669.78;;;-142.11;100.00
14800;BME280;7491;57.750;11.970;2023-03-25T01:06:39;74671.81;;;-142.11;100.00
14800;BME280;7491;57.750;11.970;2023-03-25T01:09:11;74682.00;;;-142.11;100.00
14800;BME280;7491;57.750;11.970;2023-03-25T01:11:40;74675.88;;;-142.11;100.00
14800;BME280;7491;57.750;11.970;2023-03-25T01:14:12;74688.09;;;-142.11;100.00
14800;BME280;7491;57.750;11.970;2023-03-25T01:16:39;74684.03;;;-142.11;100.00
14800;BME280;7491;57.750;11.970;2023-03-25T01:19:06;74679.97;;;-142.11;100.00
14800;BME280;7491;57.750;11.970;2023-03-25T01:21:32;74688.09;;;-142.11;100.00
14800;BME280;7491;57.750;11.970;2023-03-25T01:24:01;74669.78;;;-142.11;100.00
14800;BME280;7491;57.750;11.970;2023-03-25T01:26:27;74677.91;;;-142.11;100.00
14800;BME280;7491;57.750;11.970;2023-03-25T01:28:54;74675.88;;;-142.11;100.00
14800;BME280;7491;57.750;11.970;2023-03-25T01:31:22;74688.09;;;-142.11;100.00
14800;BME280;7491;57.750;11.970;2023-03-25T01:33:50;74682.00;;;-142.11;100.00
14800;BME280;7491;57.750;11.970;2023-03-25T01:36:17;74682.00;;;-142.11;100.00
14800;BME280;7491;57.750;11.970;2023-03-25T01:38:45;74673.84;;;-142.11;100.00
14800;BME280;7491;57.750;11.970;2023-03-25T01:41:12;74694.22;;;-142.11;100.00
14800;BME280;7491;57.750;11.970;2023-03-25T01:43:39;74675.88;;;-142.11;100.00
14800;BME280;7491;57.750;11.970;2023-03-25T01:46:10;74686.06;;;-142.11;100.00
14800;BME280;7491;57.750;11.970;2023-03-25T01:48:41;74671.81;;;-142.11;100.00
14800;BME280;7491;57.750;11.970;2023-03-25T01:51:11;74679.97;;;-142.11;100.00
14800;BME280;7491;57.750;11.970;2023-03-25T01:53:40;74673.84;;;-142.11;100.00
14800;BME280;7491;57.750;11.970;2023-03-25T01:56:09;74675.88;;;-142.11;100.00
14800;BME280;7491;57.750;11.970;2023-03-25T01:58:38;74669.78;;;-142.11;100.00
14800;BME280;7491;57.750;11.970;2023-03-25T02:01:06;74671.81;;;-142.11;100.00
14800;BME280;7491;57.750;11.970;2023-03-25T02:03:36;74663.66;;;-142.11;100.00
14800;BME280;7491;57.750;11.970;2023-03-25T02:06:07;74679.97;;;-142.11;100.00
14800;BME280;7491;57.750;11.970;2023-03-25T02:08:38;74675.88;;;-142.11;100.00
14800;BME280;7491;57.750;11.970;2023-03-25T02:11:06;74677.91;;;-142.11;100.00
14800;BME280;7491;57.750;11.970;2023-03-25T02:13:34;74671.81;;;-142.11;100.00
14800;BME280;7491;57.750;11.970;2023-03-25T02:16:19;74671.81;;;-142.11;100.00
14800;BME280;7491;57.750;11.970;2023-03-25T02:18:59;74653.47;;;-142.11;100.00
14800;BME280;7491;57.750;11.970;2023-03-25T02:22:00;74647.34;;;-142.11;100.00
14800;BME280;7491;57.750;11.970;2023-03-25T02:24:52;74639.22;;;-142.11;100.00
14800;BME280;7491;57.750;11.970;2023-03-25T02:27:46;74626.97;;;-142.11;100.00
14800;BME280;7491;57.750;11.970;2023-03-25T02:30:45;74631.06;;;-142.11;100.00
14800;BME280;7491;57.750;11.970;2023-03-25T02:36:42;74651.44;;;-142.11;100.00
14800;BME280;7491;57.750;11.970;2023-03-25T02:39:18;74641.25;;;-142.11;100.00
14800;BME280;7491;57.750;11.970;2023-03-25T02:41:53;74647.34;;;-142.11;100.00
14800;BME280;7491;57.750;11.970;2023-03-25T02:44:28;74643.28;;;-142.11;100.00
14800;BME280;7491;57.750;11.970;2023-03-25T02:46:58;74639.22;;;-142.11;100.00
14800;BME280;7491;57.750;11.970;2023-03-25T02:49:28;74633.09;;;-142.11;100.00
14800;BME280;7491;57.750;11.970;2023-03-25T02:51:59;74639.22;;;-142.11;100.00
14800;BME280;7491;57.750;11.970;2023-03-25T02:54:29;74626.97;;;-142.11;100.00
14800;BME280;7491;57.750;11.970;2023-03-25T02:56:59;74622.91;;;-142.11;100.00
14800;BME280;7491;57.750;11.970;2023-03-25T02:59:28;74626.97;;;-142.11;100.00
14800;BME280;7491;57.750;11.970;2023-03-25T03:01:58;74624.94;;;-142.11;100.00
14800;BME280;7491;57.750;11.970;2023-03-25T03:04:26;74624.94;;;-142.11;100.00
14800;BME280;7491;57.750;11.970;2023-03-25T03:06:54;74626.97;;;-142.11;100.00
14800;BME280;7491;57.750;11.970;2023-03-25T03:09:34;74637.16;;;-142.11;100.00
14800;BME280;7491;57.750;11.970;2023-03-25T03:12:15;74622.91;;;-142.11;100.00
14800;BME280;7491;57.750;11.970;2023-03-25T03:15:05;74629.00;;;-142.11;100.00
14800;BME280;7491;57.750;11.970;2023-03-25T03:17:42;74639.22;;;-142.11;100.00
14800;BME280;7491;57.750;11.970;2023-03-25T03:20:17;74641.25;;;-142.11;100.00
14800;BME280;7491;57.750;11.970;2023-03-25T03:22:53;74626.97;;;-142.11;100.00
14800;BME280;7491;57.750;11.970;2023-03-25T03:25:30;74641.25;;;-142.11;100.00
14800;BME280;7491;57.750;11.970;2023-03-25T03:28:04;74645.31;;;-142.11;100.00
14800;BME280;7491;57.750;11.970;2023-03-25T03:30:36;74629.00;;;-142.11;100.00
14800;BME280;7491;57.750;11.970;2023-03-25T03:33:11;74639.22;;;-142.11;100.00
14800;BME280;7491;57.750;11.970;2023-03-25T03:35:42;74629.00;;;-142.11;100.00
14800;BME280;7491;57.750;11.970;2023-03-25T03:38:14;74631.06;;;-142.11;100.00
14800;BME280;7491;57.750;11.970;2023-03-25T03:40:48;74637.16;;;-142.11;100.00
14800;BME280;7491;57.750;11.970;2023-03-25T03:43:20;74629.00;;;-142.11;100.00
14800;BME280;7491;57.750;11.970;2023-03-25T03:45:50;74635.13;;;-142.11;100.00
14800;BME280;7491;57.750;11.970;2023-03-25T03:48:21;74631.06;;;-142.11;100.00
14800;BME280;7491;57.750;11.970;2023-03-25T03:50:51;74635.13;;;-142.11;100.00
14800;BME280;7491;57.750;11.970;2023-03-25T03:53:24;74639.22;;;-142.11;100.00
14800;BME280;7491;57.750;11.970;2023-03-25T03:55:58;74643.28;;;-142.11;100.00
14800;BME280;7491;57.750;11.970;2023-03-25T03:58:30;74637.16;;;-142.11;100.00
14800;BME280;7491;57.750;11.970;2023-03-25T04:01:02;74639.22;;;-142.11;100.00
14800;BME280;7491;57.750;11.970;2023-03-25T04:03:35;74647.34;;;-142.11;100.00
14800;BME280;7491;57.750;11.970;2023-03-25T04:06:07;74657.53;;;-142.11;100.00
14800;BME280;7491;57.750;11.970;2023-03-25T04:08:39;74649.41;;;-142.11;100.00
14800;BME280;7491;57.750;11.970;2023-03-25T04:11:18;74645.31;;;-142.11;100.00
14800;BME280;7491;57.750;11.970;2023-03-25T04:13:48;74626.97;;;-142.11;100.00
14800;BME280;7491;57.750;11.970;2023-03-25T04:16:21;74626.97;;;-142.11;100.00
14800;BME280;7491;57.750;11.970;2023-03-25T04:18:52;74622.91;;;-142.11;100.00
14800;BME280;7491;57.750;11.970;2023-03-25T04:21:19;74620.88;;;-142.11;100.00
14800;BME280;7491;57.750;11.970;2023-03-25T04:23:46;74622.91;;;-142.11;100.00
14800;BME280;7491;57.750;11.970;2023-03-25T04:26:16;74620.88;;;-142.11;100.00
14800;BME280;7491;57.750;11.970;2023-03-25T04:28:43;74626.97;;;-142.11;100.00
14800;BME280;7491;57.750;11.970;2023-03-25T04:31:12;74612.72;;;-142.11;100.00
14800;BME280;7491;57.750;11.970;2023-03-25T04:33:41;74631.06;;;-142.11;100.00
14800;BME280;7491;57.750;11.970;2023-03-25T04:36:11;74624.94;;;-142.11;100.00
14800;BME280;7491;57.750;11.970;2023-03-25T04:38:39;74626.97;;;-142.11;100.00
14800;BME280;7491;57.750;11.970;2023-03-25T04:41:06;74614.75;;;-142.11;100.00
14800;BME280;7491;57.750;11.970;2023-03-25T04:43:35;74622.91;;;-142.11;100.00
14800;BME280;7491;57.750;11.970;2023-03-25T04:46:04;74614.75;;;-142.11;100.00
14800;BME280;7491;57.750;11.970;2023-03-25T04:48:33;74614.75;;;-142.11;100.00
14800;BME280;7491;57.750;11.970;2023-03-25T04:51:07;74622.91;;;-142.11;100.00
14800;BME280;7491;57.750;11.970;2023-03-25T04:53:36;74629.00;;;-142.11;100.00
14800;BME280;7491;57.750;11.970;2023-03-25T04:56:05;74624.94;;;-142.11;100.00
14800;BME280;7491;57.750;11.970;2023-03-25T04:58:38;74606.59;;;-142.11;100.00
14800;BME280;7491;57.750;11.970;2023-03-25T05:01:06;74612.72;;;-142.11;100.00
14800;BME280;7491;57.750;11.970;2023-03-25T05:03:35;74606.59;;;-142.11;100.00
14800;BME280;7491;57.750;11.970;2023-03-25T05:06:05;74600.50;;;-142.11;100.00
14800;BME280;7491;57.750;11.970;2023-03-25T05:08:33;74598.44;;;-142.11;100.00
14800;BME280;7491;57.750;11.970;2023-03-25T05:11:00;74618.84;;;-142.11;100.00
14800;BME280;7491;57.750;11.970;2023-03-25T05:13:27;74635.13;;;-142.11;100.00
14800;BME280;7491;57.750;11.970;2023-03-25T05:15:55;74622.91;;;-142.11;100.00
14800;BME280;7491;57.750;11.970;2023-03-25T05:18:22;74639.22;;;-142.11;100.00
14800;BME280;7491;57.750;11.970;2023-03-25T05:20:49;74643.28;;;-142.11;100.00
14800;BME280;7491;57.750;11.970;2023-03-25T05:23:17;74657.53;;;-142.11;100.00
14800;BME280;7491;57.750;11.970;2023-03-25T05:25:44;74659.59;;;-142.11;100.00
14800;BME280;7491;57.750;11.970;2023-03-25T05:28:12;74657.53;;;-142.11;100.00
14800;BME280;7491;57.750;11.970;2023-03-25T05:30:39;74643.28;;;-142.11;100.00
14800;BME280;7491;57.750;11.970;2023-03-25T05:33:08;74645.31;;;-142.11;100.00
14800;BME280;7491;57.750;11.970;2023-03-25T05:35:35;74661.63;;;-142.11;100.00
14800;BME280;7491;57.750;11.970;2023-03-25T05:38:02;74663.66;;;-142.11;100.00
14800;BME280;7491;57.750;11.970;2023-03-25T05:40:29;74655.50;;;-142.11;100.00
14800;BME280;7491;57.750;11.970;2023-03-25T05:42:57;74649.41;;;-142.11;100.00
14800;BME280;7491;57.750;11.970;2023-03-25T05:45:24;74655.50;;;-142.11;100.00
14800;BME280;7491;57.750;11.970;2023-03-25T05:47:51;74663.66;;;-142.11;100.00
14800;BME280;7491;57.750;11.970;2023-03-25T05:50:20;74659.59;;;-142.11;100.00
14800;BME280;7491;57.750;11.970;2023-03-25T05:52:47;74667.72;;;-142.11;100.00
14800;BME280;7491;57.750;11.970;2023-03-25T05:55:18;74661.63;;;-142.11;100.00
14800;BME280;7491;57.750;11.970;2023-03-25T05:57:45;74657.53;;;-142.11;100.00
14800;BME280;7491;57.750;11.970;2023-03-25T06:00:14;74659.59;;;-142.11;100.00
14800;BME280;7491;57.750;11.970;2023-03-25T06:02:44;74659.59;;;-142.11;100.00
14800;BME280;7491;57.750;11.970;2023-03-25T06:05:12;74661.63;;;-142.11;100.00
14800;BME280;7491;57.750;11.970;2023-03-25T06:07:42;74657.53;;;-142.11;100.00
14800;BME280;7491;57.750;11.970;2023-03-25T06:10:16;74651.44;;;-142.11;100.00
14800;BME280;7491;57.750;11.970;2023-03-25T06:12:45;74649.41;;;-142.11;100.00
14800;BME280;7491;57.750;11.970;2023-03-25T06:15:14;74645.31;;;-142.11;100.00
14800;BME280;7491;57.750;11.970;2023-03-25T06:17:43;74639.22;;;-142.11;100.00
14800;BME280;7491;57.750;11.970;2023-03-25T06:20:11;74669.78;;;-142.11;100.00
14800;BME280;7491;57.750;11.970;2023-03-25T06:22:46;74657.53;;;-142.11;100.00
14800;BME280;7491;57.750;11.970;2023-03-25T06:25:21;74657.53;;;-142.11;100.00
14800;BME280;7491;57.750;11.970;2023-03-25T06:27:50;74669.78;;;-142.11;100.00
14800;BME280;7491;57.750;11.970;2023-03-25T06:30:19;74629.00;;;-142.11;100.00
14800;BME280;7491;57.750;11.970;2023-03-25T06:32:46;74626.97;;;-142.11;100.00
14800;BME280;7491;57.750;11.970;2023-03-25T06:35:15;74626.97;;;-142.11;100.00
14800;BME280;7491;57.750;11.970;2023-03-25T06:37:45;74635.13;;;-142.11;100.00
14800;BME280;7491;57.750;11.970;2023-03-25T06:40:13;74626.97;;;-142.11;100.00
14800;BME280;7491;57.750;11.970;2023-03-25T06:42:40;74626.97;;;-142.11;100.00
14800;BME280;7491;57.750;11.970;2023-03-25T06:45:08;74606.59;;;-142.11;100.00
14800;BME280;7491;57.750;11.970;2023-03-25T06:47:36;74606.59;;;-142.11;100.00
14800;BME280;7491;57.750;11.970;2023-03-25T06:50:04;74602.53;;;-142.11;100.00
14800;BME280;7491;57.750;11.970;2023-03-25T06:52:37;74616.78;;;-142.11;100.00
14800;BME280;7491;57.750;11.970;2023-03-25T06:55:09;74602.53;;;-142.11;100.00
14800;BME280;7491;57.750;11.970;2023-03-25T06:57:35;74602.53;;;-142.11;100.00
14800;BME280;7491;57.750;11.970;2023-03-25T07:00:03;74592.34;;;-142.11;100.00
14800;BME280;7491;57.750;11.970;2023-03-25T07:02:34;74594.38;;;-142.11;100.00
14800;BME280;7491;57.750;11.970;2023-03-25T07:05:02;74592.34;;;-142.11;100.00
14800;BME280;7491;57.750;11.970;2023-03-25T07:07:28;74584.19;;;-142.11;100.00
14800;BME280;7491;57.750;11.970;2023-03-25T07:09:55;74582.16;;;-142.11;100.00
14800;BME280;7491;57.750;11.970;2023-03-25T07:12:24;74580.13;;;-142.11;100.00
14800;BME280;7491;57.750;11.970;2023-03-25T07:14:52;74576.03;;;-142.11;100.00
14800;BME280;7491;57.750;11.970;2023-03-25T07:17:22;74582.16;;;-142.11;100.00
14800;BME280;7491;57.750;11.970;2023-03-25T07:19:49;74571.97;;;-142.11;100.00
14800;BME280;7491;57.750;11.970;2023-03-25T07:22:17;74571.97;;;-142.11;100.00
14800;BME280;7491;57.750;11.970;2023-03-25T07:24:44;74588.25;;;-142.11;100.00
14800;BME280;7491;57.750;11.970;2023-03-25T07:27:11;74578.06;;;-142.11;100.00
14800;BME280;7491;57.750;11.970;2023-03-25T07:29:40;74569.94;;;-142.11;100.00
14800;BME280;7491;57.750;11.970;2023-03-25T07:32:07;74576.03;;;-142.11;100.00
14800;BME280;7491;57.750;11.970;2023-03-25T07:34:34;74563.81;;;-142.11;100.00
14800;BME280;7491;57.750;11.970;2023-03-25T07:37:07;74578.06;;;-142.11;100.00
14800;BME280;7491;57.750;11.970;2023-03-25T07:39:34;74574.00;;;-142.11;100.00
14800;BME280;7491;57.750;11.970;2023-03-25T07:42:01;74547.50;;;-142.11;100.00
14800;BME280;7491;57.750;11.970;2023-03-25T07:44:35;74551.59;;;-142.11;100.00
14800;BME280;7491;57.750;11.970;2023-03-25T07:48:25;74535.28;;;-142.11;100.00
14800;BME280;7491;57.750;11.970;2023-03-25T07:50:15;74547.50;;;-142.11;100.00
14800;BME280;7491;57.750;11.970;2023-03-25T07:55:45;74545.47;;;-142.11;100.00
14800;BME280;7491;57.750;11.970;2023-03-25T07:58:26;74537.31;;;-142.11;100.00
14800;BME280;7491;57.750;11.970;2023-03-25T08:00:55;74541.41;;;-142.11;100.00
14800;BME280;7491;57.750;11.970;2023-03-25T08:13:29;74541.41;;;-142.11;100.00
14800;BME280;7491;57.750;11.970;2023-03-25T08:16:11;74529.19;;;-142.11;100.00
14800;BME280;7491;57.750;11.970;2023-03-25T08:18:59;74523.06;;;-142.11;100.00
14800;BME280;7491;57.750;11.970;2023-03-25T08:22:03;74525.09;;;-142.11;100.00
14800;BME280;7491;57.750;11.970;2023-03-25T08:58:44;74474.16;;;-142.11;100.00
14800;BME280;7491;57.750;11.970;2023-03-25T09:01:17;74482.31;;;-142.11;100.00
14800;BME280;7491;57.750;11.970;2023-03-25T09:04:07;74472.13;;;-142.11;100.00
14800;BME280;7491;57.750;11.970;2023-03-25T09:07:19;74457.88;;;-142.11;100.00
14800;BME280;7491;57.750;11.970;2023-03-25T09:10:10;74435.44;;;-142.11;100.00
14800;BME280;7491;57.750;11.970;2023-03-25T09:12:39;74437.50;;;-142.11;100.00
14800;BME280;7491;57.750;11.970;2023-03-25T09:15:10;74415.06;;;-142.11;100.00
14800;BME280;7491;57.750;11.970;2023-03-25T09:17:39;74417.13;;;-142.11;100.00
14800;BME280;7491;57.750;11.970;2023-03-25T09:20:07;74443.59;;;-142.11;100.00
14800;BME280;7491;57.750;11.970;2023-03-25T09:22:35;74447.69;;;-142.11;100.00
14800;BME280;7491;57.750;11.970;2023-03-25T09:25:06;74449.72;;;-142.11;100.00
14800;BME280;7491;57.750;11.970;2023-03-25T09:27:45;74484.34;;;-142.11;100.00
14800;BME280;7491;57.750;11.970;2023-03-25T09:30:17;74466.00;;;-142.11;100.00
14800;BME280;7491;57.750;11.970;2023-03-25T09:32:49;74472.13;;;-142.11;100.00
14800;BME280;7491;57.750;11.970;2023-03-25T09:35:21;74474.16;;;-142.11;100.00
14800;BME280;7491;57.750;11.970;2023-03-25T09:37:52;74466.00;;;-142.11;100.00
14800;BME280;7491;57.750;11.970;2023-03-25T09:40:20;74468.06;;;-142.11;100.00
14800;BME280;7491;57.750;11.970;2023-03-25T09:43:03;74484.34;;;-142.11;100.00
14800;BME280;7491;57.750;11.970;2023-03-25T09:45:36;74480.28;;;-142.11;100.00
14800;BME280;7491;57.750;11.970;2023-03-25T09:48:26;74492.50;;;-142.11;100.00
14800;BME280;7491;57.750;11.970;2023-03-25T10:04:45;74569.94;;;-142.11;100.00
14800;BME280;7491;57.750;11.970;2023-03-25T10:08:03;74576.03;;;-142.11;100.00
14800;BME280;7491;57.750;11.970;2023-03-25T10:34:05;74553.63;;;-142.11;100.00
14800;BME280;7491;57.750;11.970;2023-03-25T10:36:54;74549.56;;;-142.11;100.00
14800;BME280;7491;57.750;11.970;2023-03-25T10:43:50;74553.63;;;-142.11;100.00
14800;BME280;7491;57.750;11.970;2023-03-25T11:00:13;74561.78;;;-142.11;100.00
14800;BME280;7491;57.750;11.970;2023-03-25T11:03:03;74541.41;;;-142.11;100.00
14800;BME280;7491;57.750;11.970;2023-03-25T11:05:52;74545.47;;;-142.11;100.00
14800;BME280;7491;57.750;11.970;2023-03-25T11:11:59;74506.75;;;-142.11;100.00
14800;BME280;7491;57.750;11.970;2023-03-25T11:14:38;74478.25;;;-142.11;100.00
14800;BME280;7491;57.750;11.970;2023-03-25T11:17:21;74466.00;;;-142.11;100.00
14800;BME280;7491;57.750;11.970;2023-03-25T11:19:52;74459.91;;;-142.11;100.00
14800;BME280;7491;57.750;11.970;2023-03-25T11:22:23;74457.88;;;-142.11;100.00
14800;BME280;7491;57.750;11.970;2023-03-25T11:24:57;74466.00;;;-142.11;100.00
14800;BME280;7491;57.750;11.970;2023-03-25T11:27:27;74468.06;;;-142.11;100.00
14800;BME280;7491;57.750;11.970;2023-03-25T11:29:59;74490.47;;;-142.11;100.00
14800;BME280;7491;57.750;11.970;2023-03-25T11:32:33;74486.38;;;-142.11;100.00
14800;BME280;7491;57.750;11.970;2023-03-25T11:35:05;74508.81;;;-142.11;100.00
14800;BME280;7491;57.750;11.970;2023-03-25T11:37:41;74492.50;;;-142.11;100.00
14800;BME280;7491;57.750;11.970;2023-03-25T11:40:14;74488.44;;;-142.11;100.00
14800;BME280;7491;57.750;11.970;2023-03-25T11:42:45;74466.00;;;-142.11;100.00
14800;BME280;7491;57.750;11.970;2023-03-25T11:45:22;74451.75;;;-142.11;100.00
14800;BME280;7491;57.750;11.970;2023-03-25T11:47:52;74441.56;;;-142.11;100.00
14800;BME280;7491;57.750;11.970;2023-03-25T11:50:24;74441.56;;;-142.11;100.00
14800;BME280;7491;57.750;11.970;2023-03-25T11:52:53;74427.31;;;-142.11;100.00
14800;BME280;7491;57.750;11.970;2023-03-25T11:55:24;74455.81;;;-142.11;100.00
14800;BME280;7491;57.750;11.970;2023-03-25T11:57:53;74439.53;;;-142.11;100.00
14800;BME280;7491;57.750;11.970;2023-03-25T12:00:30;74398.78;;;-142.11;100.00
14800;BME280;7491;57.750;11.970;2023-03-25T12:03:01;74392.66;;;-142.11;100.00
14800;BME280;7491;57.750;11.970;2023-03-25T12:05:29;74419.16;;;-142.11;100.00
14800;BME280;7491;57.750;11.970;2023-03-25T12:08:10;74419.16;;;-142.11;100.00
14800;BME280;7491;57.750;11.970;2023-03-25T12:10:50;74441.56;;;-142.11;100.00
14800;BME280;7491;57.750;11.970;2023-03-25T12:13:31;74433.41;;;-142.11;100.00
14800;BME280;7491;57.750;11.970;2023-03-25T12:16:09;74443.59;;;-142.11;100.00
14800;BME280;7491;57.750;11.970;2023-03-25T12:19:02;74425.25;;;-142.11;100.00
14800;BME280;7491;57.750;11.970;2023-03-25T12:21:44;74425.25;;;-142.11;100.00
14800;BME280;7491;57.750;11.970;2023-03-25T12:24:27;74413.03;;;-142.11;100.00
14800;BME280;7491;57.750;11.970;2023-03-25T12:27:12;74413.03;;;-142.11;100.00
14800;BME280;7491;57.750;11.970;2023-03-25T12:29:46;74384.50;;;-142.11;100.00
14800;BME280;7491;57.750;11.970;2023-03-25T12:32:27;74390.63;;;-142.11;100.00
14800;BME280;7491;57.750;11.970;2023-03-25T12:35:10;74378.41;;;-142.11;100.00
14800;BME280;7491;57.750;11.970;2023-03-25T12:37:55;74362.09;;;-142.11;100.00
14800;BME280;7491;57.750;11.970;2023-03-25T12:40:35;74358.03;;;-142.11;100.00
14800;BME280;7491;57.750;11.970;2023-03-25T12:43:09;74321.34;;;-142.11;100.00
14800;BME280;7491;57.750;11.970;2023-03-25T12:46:01;74300.97;;;-142.11;100.00
14800;BME280;7491;57.750;11.970;2023-03-25T12:49:04;74311.16;;;-142.11;100.00
14800;BME280;7491;57.750;11.970;2023-03-25T12:51:48;74300.97;;;-142.11;100.00
14800;BME280;7491;57.750;11.970;2023-03-25T12:54:29;74327.47;;;-142.11;100.00
14800;BME280;7491;57.750;11.970;2023-03-25T12:57:08;74356.00;;;-142.11;100.00
14800;BME280;7491;57.750;11.970;2023-03-25T12:59:59;74374.31;;;-142.11;100.00
14800;BME280;7491;57.750;11.970;2023-03-25T13:02:47;74362.09;;;-142.11;100.00
14800;BME280;7491;57.750;11.970;2023-03-25T13:05:24;74343.78;;;-142.11;100.00
14800;BME280;7491;57.750;11.970;2023-03-25T13:07:57;74345.81;;;-142.11;100.00
14800;BME280;7491;57.750;11.970;2023-03-25T13:10:28;74374.31;;;-142.11;100.00
14800;BME280;7491;57.750;11.970;2023-03-25T13:12:57;74388.59;;;-142.11;100.00
14800;BME280;7491;57.750;11.970;2023-03-25T13:15:31;74376.38;;;-142.11;100.00
14800;BME280;7491;57.750;11.970;2023-03-25T13:18:02;74384.50;;;-142.11;100.00
14800;BME280;7491;57.750;11.970;2023-03-25T13:20:34;74411.00;;;-142.11;100.00
14800;BME280;7491;57.750;11.970;2023-03-25T13:23:07;74402.84;;;-142.11;100.00
14800;BME280;7491;57.750;11.970;2023-03-25T13:25:45;74400.81;;;-142.11;100.00
14800;BME280;7491;57.750;11.970;2023-03-25T13:28:16;74417.13;;;-142.11;100.00
14800;BME280;7491;57.750;11.970;2023-03-25T13:30:47;74423.22;;;-142.11;100.00
14800;BME280;7491;57.750;11.970;2023-03-25T13:33:18;74411.00;;;-142.11;100.00
14800;BME280;7491;57.750;11.970;2023-03-25T13:35:49;74437.50;;;-142.11;100.00
14800;BME280;7491;57.750;11.970;2023-03-25T13:38:26;74453.78;;;-142.11;100.00
14800;BME280;7491;57.750;11.970;2023-03-25T13:41:06;74433.41;;;-142.11;100.00
14800;BME280;7491;57.750;11.970;2023-03-25T13:43:42;74449.72;;;-142.11;100.00
14800;BME280;7491;57.750;11.970;2023-03-25T13:46:14;74449.72;;;-142.11;100.00
14800;BME280;7491;57.750;11.970;2023-03-25T13:48:48;74466.00;;;-142.11;100.00
14800;BME280;7491;57.750;11.970;2023-03-25T13:51:18;74466.00;;;-142.11;100.00
14800;BME280;7491;57.750;11.970;2023-03-25T13:53:51;74470.09;;;-142.11;100.00
14800;BME280;7491;57.750;11.970;2023-03-25T13:56:39;74468.06;;;-142.11;100.00
14800;BME280;7491;57.750;11.970;2023-03-25T13:59:22;74480.28;;;-142.11;100.00
14800;BME280;7491;57.750;11.970;2023-03-25T14:02:27;74480.28;;;-142.11;100.00
14800;BME280;7491;57.750;11.970;2023-03-25T14:08:32;74480.28;;;-142.11;100.00
14800;BME280;7491;57.750;11.970;2023-03-25T14:11:20;74474.16;;;-142.11;100.00
14800;BME280;7491;57.750;11.970;2023-03-25T14:13:56;74474.16;;;-142.11;100.00
14800;BME280;7491;57.750;11.970;2023-03-25T14:16:28;74474.16;;;-142.11;100.00
14800;BME280;7491;57.750;11.970;2023-03-25T14:19:00;74480.28;;;-142.11;100.00
14800;BME280;7491;57.750;11.970;2023-03-25T14:21:38;74478.25;;;-142.11;100.00
14800;BME280;7491;57.750;11.970;2023-03-25T14:24:10;74492.50;;;-142.11;100.00
14800;BME280;7491;57.750;11.970;2023-03-25T14:26:44;74490.47;;;-142.11;100.00
14800;BME280;7491;57.750;11.970;2023-03-25T14:29:23;74502.69;;;-142.11;100.00
14800;BME280;7491;57.750;11.970;2023-03-25T14:32:23;74514.91;;;-142.11;100.00
14800;BME280;7491;57.750;11.970;2023-03-25T14:34:51;74555.66;;;-142.11;100.00
14800;BME280;7491;57.750;11.970;2023-03-25T14:37:27;74571.97;;;-142.11;100.00
14800;BME280;7491;57.750;11.970;2023-03-25T14:43:43;74610.69;;;-142.11;100.00
14800;BME280;7491;57.750;11.970;2023-03-25T14:46:23;74610.69;;;-142.11;100.00
14800;BME280;7491;57.750;11.970;2023-03-25T14:49:17;74639.22;;;-142.11;100.00
14800;BME280;7491;57.750;11.970;2023-03-25T14:51:58;74657.53;;;-142.11;100.00
14800;BME280;7491;57.750;11.970;2023-03-25T14:54:32;74690.16;;;-142.11;100.00
14800;BME280;7491;57.750;11.970;2023-03-25T14:57:04;74694.22;;;-142.11;100.00